LFLY/LYN METAR and TAF weather

Enter ICAO airport designator
Station Type Date Time Source
LFLY METAR 2019/04/19 08:30 UTC NOAA

LFLY 190830Z AUTO 00000KT CAVOK 18/07 Q1026 NOSIG


Station Type Date Time Source
LFLY Decoded METAR 2019/04/19 08:30 UTC NOAA

Lyon / Bron, France (LFLY) 45-43N 004-57E 201M
Apr 19, 2019 - 04:30 AM EDT / 2019.04.19 0830 UTC
Wind: Calm:0
Visibility: greater than 7 mile(s):0
Temperature: 64 F (18 C)
Dew Point: 44 F (7 C)
Relative Humidity: 48%
Pressure (altimeter): 30.30 in. Hg (1026 hPa)
ob: LFLY 190830Z AUTO 00000KT CAVOK 18/07 Q1026 NOSIG
cycle: 8

Station Type Date Time Source
LFLY TAF 2019/04/19 06:21 UTC NOAA

TAF LFLY 190500Z 1906/2006 18006KT CAVOK

Example: see airport list